sensor_id;sensor_type;location;lat;lon;timestamp;P1;durP1;ratioP1;P2;durP2;ratioP2
7029;SDS011;3556;53.500;10.176;2023-08-21T00:01:40;5.50;;;3.10;;
7029;SDS011;3556;53.500;10.176;2023-08-21T00:04:05;6.30;;;3.63;;
7029;SDS011;3556;53.500;10.176;2023-08-21T00:06:31;5.87;;;3.10;;
7029;SDS011;3556;53.500;10.176;2023-08-21T00:08:57;10.10;;;3.10;;
7029;SDS011;3556;53.500;10.176;2023-08-21T00:11:22;8.30;;;3.33;;
7029;SDS011;3556;53.500;10.176;2023-08-21T00:13:48;4.43;;;3.40;;
7029;SDS011;3556;53.500;10.176;2023-08-21T00:16:14;8.07;;;3.53;;
7029;SDS011;3556;53.500;10.176;2023-08-21T00:18:41;6.30;;;3.63;;
7029;SDS011;3556;53.500;10.176;2023-08-21T00:21:07;7.10;;;3.30;;
7029;SDS011;3556;53.500;10.176;2023-08-21T00:23:32;6.10;;;2.90;;
7029;SDS011;3556;53.500;10.176;2023-08-21T00:25:58;5.07;;;3.27;;
7029;SDS011;3556;53.500;10.176;2023-08-21T00:28:24;6.23;;;3.63;;
7029;SDS011;3556;53.500;10.176;2023-08-21T00:30:49;3.70;;;3.40;;
7029;SDS011;3556;53.500;10.176;2023-08-21T00:33:15;5.40;;;3.33;;
7029;SDS011;3556;53.500;10.176;2023-08-21T00:35:41;5.20;;;2.80;;
7029;SDS011;3556;53.500;10.176;2023-08-21T00:38:08;4.27;;;3.23;;
7029;SDS011;3556;53.500;10.176;2023-08-21T00:40:33;6.20;;;3.43;;
7029;SDS011;3556;53.500;10.176;2023-08-21T00:42:59;3.57;;;3.27;;
7029;SDS011;3556;53.500;10.176;2023-08-21T00:45:25;8.40;;;3.80;;
7029;SDS011;3556;53.500;10.176;2023-08-21T00:47:50;7.80;;;3.13;;
7029;SDS011;3556;53.500;10.176;2023-08-21T00:50:16;4.60;;;3.67;;
7029;SDS011;3556;53.500;10.176;2023-08-21T00:52:43;9.57;;;3.80;;
7029;SDS011;3556;53.500;10.176;2023-08-21T00:55:11;5.43;;;3.37;;
7029;SDS011;3556;53.500;10.176;2023-08-21T00:57:38;4.00;;;3.10;;
7029;SDS011;3556;53.500;10.176;2023-08-21T01:00:05;5.80;;;3.40;;
7029;SDS011;3556;53.500;10.176;2023-08-21T01:02:32;9.53;;;3.70;;
7029;SDS011;3556;53.500;10.176;2023-08-21T01:04:58;4.57;;;3.47;;
7029;SDS011;3556;53.500;10.176;2023-08-21T01:07:23;5.43;;;3.63;;
7029;SDS011;3556;53.500;10.176;2023-08-21T01:09:50;3.53;;;3.23;;
7029;SDS011;3556;53.500;10.176;2023-08-21T01:12:35;5.47;;;3.90;;
7029;SDS011;3556;53.500;10.176;2023-08-21T01:15:09;4.30;;;2.90;;
7029;SDS011;3556;53.500;10.176;2023-08-21T01:17:36;6.30;;;3.63;;
7029;SDS011;3556;53.500;10.176;2023-08-21T01:20:02;7.50;;;3.60;;
7029;SDS011;3556;53.500;10.176;2023-08-21T01:22:35;3.40;;;3.10;;
7029;SDS011;3556;53.500;10.176;2023-08-21T01:25:03;4.17;;;2.90;;
7029;SDS011;3556;53.500;10.176;2023-08-21T01:27:30;4.07;;;3.50;;
7029;SDS011;3556;53.500;10.176;2023-08-21T01:29:56;8.10;;;3.57;;
7029;SDS011;3556;53.500;10.176;2023-08-21T01:34:59;6.50;;;3.20;;
7029;SDS011;3556;53.500;10.176;2023-08-21T01:37:26;6.60;;;3.20;;
7029;SDS011;3556;53.500;10.176;2023-08-21T01:39:53;6.07;;;3.67;;
7029;SDS011;3556;53.500;10.176;2023-08-21T01:42:19;6.50;;;3.57;;
7029;SDS011;3556;53.500;10.176;2023-08-21T01:44:44;8.40;;;3.20;;
7029;SDS011;3556;53.500;10.176;2023-08-21T01:47:11;7.13;;;3.50;;
7029;SDS011;3556;53.500;10.176;2023-08-21T01:49:37;8.63;;;3.80;;
7029;SDS011;3556;53.500;10.176;2023-08-21T01:52:02;5.10;;;3.30;;
7029;SDS011;3556;53.500;10.176;2023-08-21T01:54:28;4.23;;;3.00;;
7029;SDS011;3556;53.500;10.176;2023-08-21T01:56:54;10.60;;;3.90;;
7029;SDS011;3556;53.500;10.176;2023-08-21T01:59:20;4.10;;;3.33;;
7029;SDS011;3556;53.500;10.176;2023-08-21T02:01:46;6.37;;;3.30;;
7029;SDS011;3556;53.500;10.176;2023-08-21T02:04:12;4.00;;;3.23;;
7029;SDS011;3556;53.500;10.176;2023-08-21T02:06:37;4.10;;;2.93;;
7029;SDS011;3556;53.500;10.176;2023-08-21T02:09:03;7.93;;;3.67;;
7029;SDS011;3556;53.500;10.176;2023-08-21T02:11:28;6.50;;;3.20;;
7029;SDS011;3556;53.500;10.176;2023-08-21T02:13:54;3.93;;;3.17;;
7029;SDS011;3556;53.500;10.176;2023-08-21T02:16:20;3.90;;;3.13;;
7029;SDS011;3556;53.500;10.176;2023-08-21T02:18:46;5.93;;;2.87;;
7029;SDS011;3556;53.500;10.176;2023-08-21T02:21:12;4.97;;;3.30;;
7029;SDS011;3556;53.500;10.176;2023-08-21T02:23:38;6.27;;;3.37;;
7029;SDS011;3556;53.500;10.176;2023-08-21T02:26:04;3.40;;;3.10;;
7029;SDS011;3556;53.500;10.176;2023-08-21T02:28:29;5.43;;;2.77;;
7029;SDS011;3556;53.500;10.176;2023-08-21T02:30:55;4.10;;;3.00;;
7029;SDS011;3556;53.500;10.176;2023-08-21T02:33:20;4.43;;;3.50;;
7029;SDS011;3556;53.500;10.176;2023-08-21T02:35:46;7.03;;;3.47;;
7029;SDS011;3556;53.500;10.176;2023-08-21T02:38:11;7.50;;;3.30;;
7029;SDS011;3556;53.500;10.176;2023-08-21T02:40:37;7.87;;;3.43;;
7029;SDS011;3556;53.500;10.176;2023-08-21T02:43:03;6.20;;;3.80;;
7029;SDS011;3556;53.500;10.176;2023-08-21T02:45:28;5.20;;;3.20;;
7029;SDS011;3556;53.500;10.176;2023-08-21T02:47:54;6.00;;;2.93;;
7029;SDS011;3556;53.500;10.176;2023-08-21T02:50:20;4.07;;;3.30;;
7029;SDS011;3556;53.500;10.176;2023-08-21T02:52:46;3.80;;;2.97;;
7029;SDS011;3556;53.500;10.176;2023-08-21T02:55:11;4.27;;;3.07;;
7029;SDS011;3556;53.500;10.176;2023-08-21T02:57:37;4.87;;;2.60;;
7029;SDS011;3556;53.500;10.176;2023-08-21T03:00:03;5.90;;;3.00;;
7029;SDS011;3556;53.500;10.176;2023-08-21T03:02:29;2.97;;;2.67;;
7029;SDS011;3556;53.500;10.176;2023-08-21T03:04:54;9.63;;;2.27;;
7029;SDS011;3556;53.500;10.176;2023-08-21T03:07:20;2.70;;;2.43;;
7029;SDS011;3556;53.500;10.176;2023-08-21T03:09:46;4.73;;;2.47;;
7029;SDS011;3556;53.500;10.176;2023-08-21T03:12:12;4.13;;;2.00;;
7029;SDS011;3556;53.500;10.176;2023-08-21T03:14:38;3.80;;;2.20;;
7029;SDS011;3556;53.500;10.176;2023-08-21T03:17:03;2.60;;;2.40;;
7029;SDS011;3556;53.500;10.176;2023-08-21T03:19:29;3.83;;;2.50;;
7029;SDS011;3556;53.500;10.176;2023-08-21T03:21:55;2.63;;;2.20;;
7029;SDS011;3556;53.500;10.176;2023-08-21T03:24:20;2.00;;;1.90;;
7029;SDS011;3556;53.500;10.176;2023-08-21T03:26:46;7.30;;;2.40;;
7029;SDS011;3556;53.500;10.176;2023-08-21T03:29:11;3.20;;;2.13;;
7029;SDS011;3556;53.500;10.176;2023-08-21T03:31:37;2.03;;;1.93;;
7029;SDS011;3556;53.500;10.176;2023-08-21T03:34:03;3.10;;;2.33;;
7029;SDS011;3556;53.500;10.176;2023-08-21T03:36:28;2.83;;;2.30;;
7029;SDS011;3556;53.500;10.176;2023-08-21T03:39:00;4.40;;;2.30;;
7029;SDS011;3556;53.500;10.176;2023-08-21T03:41:27;3.33;;;1.97;;
7029;SDS011;3556;53.500;10.176;2023-08-21T03:43:53;2.30;;;2.20;;
7029;SDS011;3556;53.500;10.176;2023-08-21T03:46:19;4.80;;;2.27;;
7029;SDS011;3556;53.500;10.176;2023-08-21T03:48:44;5.00;;;2.00;;
7029;SDS011;3556;53.500;10.176;2023-08-21T03:51:10;2.17;;;2.00;;
7029;SDS011;3556;53.500;10.176;2023-08-21T03:53:36;2.40;;;2.10;;
7029;SDS011;3556;53.500;10.176;2023-08-21T03:56:02;5.50;;;2.27;;
7029;SDS011;3556;53.500;10.176;2023-08-21T03:58:28;2.70;;;2.13;;
7029;SDS011;3556;53.500;10.176;2023-08-21T04:00:53;3.50;;;2.40;;
7029;SDS011;3556;53.500;10.176;2023-08-21T04:03:19;2.80;;;2.10;;
7029;SDS011;3556;53.500;10.176;2023-08-21T04:05:45;8.37;;;2.77;;
7029;SDS011;3556;53.500;10.176;2023-08-21T04:08:11;3.10;;;2.90;;
7029;SDS011;3556;53.500;10.176;2023-08-21T04:10:37;6.33;;;3.37;;
7029;SDS011;3556;53.500;10.176;2023-08-21T04:13:03;4.50;;;2.77;;
7029;SDS011;3556;53.500;10.176;2023-08-21T04:15:29;4.73;;;2.80;;
7029;SDS011;3556;53.500;10.176;2023-08-21T04:17:55;2.80;;;2.60;;
7029;SDS011;3556;53.500;10.176;2023-08-21T04:20:21;6.13;;;2.87;;
7029;SDS011;3556;53.500;10.176;2023-08-21T04:22:47;3.70;;;3.00;;
7029;SDS011;3556;53.500;10.176;2023-08-21T04:25:13;5.57;;;2.70;;
7029;SDS011;3556;53.500;10.176;2023-08-21T04:27:39;4.50;;;2.67;;
7029;SDS011;3556;53.500;10.176;2023-08-21T04:30:04;3.00;;;2.50;;
7029;SDS011;3556;53.500;10.176;2023-08-21T04:32:30;2.83;;;2.63;;
7029;SDS011;3556;53.500;10.176;2023-08-21T04:34:56;7.33;;;2.77;;
7029;SDS011;3556;53.500;10.176;2023-08-21T04:37:22;4.07;;;3.00;;
7029;SDS011;3556;53.500;10.176;2023-08-21T04:39:52;6.17;;;2.83;;
7029;SDS011;3556;53.500;10.176;2023-08-21T04:42:18;4.80;;;3.17;;
7029;SDS011;3556;53.500;10.176;2023-08-21T04:44:44;2.90;;;2.70;;
7029;SDS011;3556;53.500;10.176;2023-08-21T04:47:22;8.70;;;3.17;;
7029;SDS011;3556;53.500;10.176;2023-08-21T04:49:49;7.67;;;3.90;;
7029;SDS011;3556;53.500;10.176;2023-08-21T04:52:16;4.03;;;3.20;;
7029;SDS011;3556;53.500;10.176;2023-08-21T04:54:42;8.40;;;4.50;;
7029;SDS011;3556;53.500;10.176;2023-08-21T04:57:08;5.83;;;4.37;;
7029;SDS011;3556;53.500;10.176;2023-08-21T04:59:34;6.00;;;4.00;;
7029;SDS011;3556;53.500;10.176;2023-08-21T05:02:01;13.80;;;5.80;;
7029;SDS011;3556;53.500;10.176;2023-08-21T05:04:27;8.93;;;5.00;;
7029;SDS011;3556;53.500;10.176;2023-08-21T05:06:52;13.07;;;6.70;;
7029;SDS011;3556;53.500;10.176;2023-08-21T05:09:18;13.97;;;5.50;;
7029;SDS011;3556;53.500;10.176;2023-08-21T05:11:44;12.27;;;5.13;;
7029;SDS011;3556;53.500;10.176;2023-08-21T05:14:09;10.87;;;5.80;;
7029;SDS011;3556;53.500;10.176;2023-08-21T05:16:35;12.03;;;5.57;;
7029;SDS011;3556;53.500;10.176;2023-08-21T05:19:00;9.23;;;4.70;;
7029;SDS011;3556;53.500;10.176;2023-08-21T05:21:26;8.67;;;5.27;;
7029;SDS011;3556;53.500;10.176;2023-08-21T05:23:52;10.00;;;5.70;;
7029;SDS011;3556;53.500;10.176;2023-08-21T05:26:18;11.33;;;5.73;;
7029;SDS011;3556;53.500;10.176;2023-08-21T05:28:44;10.87;;;6.10;;
7029;SDS011;3556;53.500;10.176;2023-08-21T05:31:10;8.33;;;5.40;;
7029;SDS011;3556;53.500;10.176;2023-08-21T05:33:36;11.27;;;5.70;;
7029;SDS011;3556;53.500;10.176;2023-08-21T05:36:01;10.17;;;5.50;;
7029;SDS011;3556;53.500;10.176;2023-08-21T05:38:27;7.07;;;4.90;;
7029;SDS011;3556;53.500;10.176;2023-08-21T05:40:53;10.90;;;5.10;;
7029;SDS011;3556;53.500;10.176;2023-08-21T05:43:18;11.90;;;5.70;;
7029;SDS011;3556;53.500;10.176;2023-08-21T05:45:44;8.20;;;4.90;;
7029;SDS011;3556;53.500;10.176;2023-08-21T05:48:10;7.70;;;5.67;;
7029;SDS011;3556;53.500;10.176;2023-08-21T05:50:35;8.97;;;5.70;;
7029;SDS011;3556;53.500;10.176;2023-08-21T05:53:04;9.57;;;5.63;;
7029;SDS011;3556;53.500;10.176;2023-08-21T05:55:30;9.80;;;5.53;;
7029;SDS011;3556;53.500;10.176;2023-08-21T05:57:56;11.47;;;6.30;;
7029;SDS011;3556;53.500;10.176;2023-08-21T06:00:22;9.70;;;6.53;;
7029;SDS011;3556;53.500;10.176;2023-08-21T06:02:48;15.93;;;7.23;;
7029;SDS011;3556;53.500;10.176;2023-08-21T06:05:13;12.60;;;7.17;;
7029;SDS011;3556;53.500;10.176;2023-08-21T06:07:39;13.97;;;7.30;;
7029;SDS011;3556;53.500;10.176;2023-08-21T06:10:08;14.03;;;7.20;;
7029;SDS011;3556;53.500;10.176;2023-08-21T06:12:37;8.77;;;6.57;;
7029;SDS011;3556;53.500;10.176;2023-08-21T06:15:05;12.60;;;7.03;;
7029;SDS011;3556;53.500;10.176;2023-08-21T06:17:33;12.47;;;7.67;;
7029;SDS011;3556;53.500;10.176;2023-08-21T06:19:59;22.43;;;7.27;;
7029;SDS011;3556;53.500;10.176;2023-08-21T06:22:25;14.93;;;7.10;;
7029;SDS011;3556;53.500;10.176;2023-08-21T06:24:51;18.07;;;6.80;;
7029;SDS011;3556;53.500;10.176;2023-08-21T06:27:16;14.40;;;7.40;;
7029;SDS011;3556;53.500;10.176;2023-08-21T06:29:42;17.93;;;7.80;;
7029;SDS011;3556;53.500;10.176;2023-08-21T06:32:08;18.87;;;8.37;;
7029;SDS011;3556;53.500;10.176;2023-08-21T06:34:33;13.17;;;7.27;;
7029;SDS011;3556;53.500;10.176;2023-08-21T06:36:59;22.07;;;8.17;;
7029;SDS011;3556;53.500;10.176;2023-08-21T06:39:25;16.67;;;6.83;;
7029;SDS011;3556;53.500;10.176;2023-08-21T06:41:51;17.30;;;7.40;;
7029;SDS011;3556;53.500;10.176;2023-08-21T06:44:16;11.43;;;6.87;;
7029;SDS011;3556;53.500;10.176;2023-08-21T06:46:42;17.90;;;7.20;;
7029;SDS011;3556;53.500;10.176;2023-08-21T06:49:08;14.73;;;7.73;;
7029;SDS011;3556;53.500;10.176;2023-08-21T06:51:34;23.90;;;6.67;;
7029;SDS011;3556;53.500;10.176;2023-08-21T06:53:59;14.77;;;6.67;;
7029;SDS011;3556;53.500;10.176;2023-08-21T06:56:25;11.73;;;5.90;;
7029;SDS011;3556;53.500;10.176;2023-08-21T06:58:50;10.73;;;5.83;;
7029;SDS011;3556;53.500;10.176;2023-08-21T07:01:17;11.23;;;4.27;;
7029;SDS011;3556;53.500;10.176;2023-08-21T07:03:42;15.23;;;2.80;;
7029;SDS011;3556;53.500;10.176;2023-08-21T07:06:08;6.60;;;2.63;;
7029;SDS011;3556;53.500;10.176;2023-08-21T07:08:34;5.53;;;2.30;;
7029;SDS011;3556;53.500;10.176;2023-08-21T07:11:01;10.30;;;2.43;;
7029;SDS011;3556;53.500;10.176;2023-08-21T07:13:28;8.70;;;2.30;;
7029;SDS011;3556;53.500;10.176;2023-08-21T07:15:54;7.93;;;2.20;;
7029;SDS011;3556;53.500;10.176;2023-08-21T07:18:20;11.67;;;2.83;;
7029;SDS011;3556;53.500;10.176;2023-08-21T07:20:46;7.40;;;1.87;;
7029;SDS011;3556;53.500;10.176;2023-08-21T07:23:11;8.43;;;2.53;;
7029;SDS011;3556;53.500;10.176;2023-08-21T07:25:37;8.67;;;2.20;;
7029;SDS011;3556;53.500;10.176;2023-08-21T07:28:03;11.40;;;2.17;;
7029;SDS011;3556;53.500;10.176;2023-08-21T07:30:28;6.60;;;1.60;;
7029;SDS011;3556;53.500;10.176;2023-08-21T07:32:54;10.00;;;2.20;;
7029;SDS011;3556;53.500;10.176;2023-08-21T07:35:20;6.60;;;2.00;;
7029;SDS011;3556;53.500;10.176;2023-08-21T07:37:46;5.67;;;1.73;;
7029;SDS011;3556;53.500;10.176;2023-08-21T07:40:11;4.90;;;1.90;;
7029;SDS011;3556;53.500;10.176;2023-08-21T07:42:37;3.73;;;1.40;;
7029;SDS011;3556;53.500;10.176;2023-08-21T07:45:03;4.70;;;1.50;;
7029;SDS011;3556;53.500;10.176;2023-08-21T07:47:29;5.50;;;2.23;;
7029;SDS011;3556;53.500;10.176;2023-08-21T07:49:55;11.00;;;1.90;;
7029;SDS011;3556;53.500;10.176;2023-08-21T07:52:22;5.57;;;1.77;;
7029;SDS011;3556;53.500;10.176;2023-08-21T07:54:51;5.93;;;2.00;;
7029;SDS011;3556;53.500;10.176;2023-08-21T07:57:19;2.63;;;1.47;;
7029;SDS011;3556;53.500;10.176;2023-08-21T07:59:45;6.90;;;1.67;;
7029;SDS011;3556;53.500;10.176;2023-08-21T08:02:10;6.60;;;1.67;;
7029;SDS011;3556;53.500;10.176;2023-08-21T08:04:39;4.33;;;1.70;;
7029;SDS011;3556;53.500;10.176;2023-08-21T08:07:05;4.90;;;1.37;;
7029;SDS011;3556;53.500;10.176;2023-08-21T08:09:31;5.00;;;1.50;;
7029;SDS011;3556;53.500;10.176;2023-08-21T08:11:56;3.53;;;1.60;;
7029;SDS011;3556;53.500;10.176;2023-08-21T08:14:22;2.80;;;1.70;;
7029;SDS011;3556;53.500;10.176;2023-08-21T08:16:47;1.87;;;1.20;;
7029;SDS011;3556;53.500;10.176;2023-08-21T08:19:13;7.80;;;1.40;;
7029;SDS011;3556;53.500;10.176;2023-08-21T08:21:39;2.80;;;1.10;;
7029;SDS011;3556;53.500;10.176;2023-08-21T08:24:04;4.53;;;1.60;;
7029;SDS011;3556;53.500;10.176;2023-08-21T08:26:30;7.00;;;1.20;;
7029;SDS011;3556;53.500;10.176;2023-08-21T08:28:56;3.00;;;1.30;;
7029;SDS011;3556;53.500;10.176;2023-08-21T08:31:21;4.20;;;1.60;;
7029;SDS011;3556;53.500;10.176;2023-08-21T08:33:48;5.27;;;1.57;;
7029;SDS011;3556;53.500;10.176;2023-08-21T08:36:14;3.73;;;1.80;;
7029;SDS011;3556;53.500;10.176;2023-08-21T08:38:40;5.37;;;1.60;;
7029;SDS011;3556;53.500;10.176;2023-08-21T08:41:09;4.90;;;1.60;;
7029;SDS011;3556;53.500;10.176;2023-08-21T08:43:39;3.47;;;1.53;;
7029;SDS011;3556;53.500;10.176;2023-08-21T08:46:06;5.30;;;1.60;;
7029;SDS011;3556;53.500;10.176;2023-08-21T08:48:33;2.70;;;1.50;;
7029;SDS011;3556;53.500;10.176;2023-08-21T08:51:02;1.93;;;1.30;;
7029;SDS011;3556;53.500;10.176;2023-08-21T08:53:31;6.43;;;1.23;;
7029;SDS011;3556;53.500;10.176;2023-08-21T08:55:57;6.97;;;1.50;;
7029;SDS011;3556;53.500;10.176;2023-08-21T08:58:23;2.37;;;1.43;;
7029;SDS011;3556;53.500;10.176;2023-08-21T09:00:49;5.37;;;2.03;;
7029;SDS011;3556;53.500;10.176;2023-08-21T09:03:15;7.90;;;2.20;;
7029;SDS011;3556;53.500;10.176;2023-08-21T09:05:41;3.87;;;1.20;;
7029;SDS011;3556;53.500;10.176;2023-08-21T09:08:13;4.10;;;1.60;;
7029;SDS011;3556;53.500;10.176;2023-08-21T09:10:40;4.60;;;1.40;;
7029;SDS011;3556;53.500;10.176;2023-08-21T09:13:13;5.13;;;1.40;;
7029;SDS011;3556;53.500;10.176;2023-08-21T09:15:47;2.40;;;1.30;;
7029;SDS011;3556;53.500;10.176;2023-08-21T09:18:17;4.13;;;1.37;;
7029;SDS011;3556;53.500;10.176;2023-08-21T09:20:43;5.40;;;1.40;;
7029;SDS011;3556;53.500;10.176;2023-08-21T09:23:18;5.60;;;1.73;;
7029;SDS011;3556;53.500;10.176;2023-08-21T09:25:45;4.00;;;1.20;;
7029;SDS011;3556;53.500;10.176;2023-08-21T09:28:14;4.60;;;1.37;;
7029;SDS011;3556;53.500;10.176;2023-08-21T09:33:13;3.97;;;1.20;;
7029;SDS011;3556;53.500;10.176;2023-08-21T09:35:41;4.20;;;1.13;;
7029;SDS011;3556;53.500;10.176;2023-08-21T09:38:07;5.17;;;1.00;;
7029;SDS011;3556;53.500;10.176;2023-08-21T09:40:34;3.10;;;1.00;;
7029;SDS011;3556;53.500;10.176;2023-08-21T09:42:59;6.20;;;1.30;;
7029;SDS011;3556;53.500;10.176;2023-08-21T09:45:28;2.17;;;0.90;;
7029;SDS011;3556;53.500;10.176;2023-08-21T09:47:54;2.63;;;0.90;;
7029;SDS011;3556;53.500;10.176;2023-08-21T09:50:21;3.00;;;1.10;;
7029;SDS011;3556;53.500;10.176;2023-08-21T09:52:47;3.73;;;1.17;;
7029;SDS011;3556;53.500;10.176;2023-08-21T09:55:13;2.90;;;1.40;;
7029;SDS011;3556;53.500;10.176;2023-08-21T09:57:40;4.10;;;1.40;;
7029;SDS011;3556;53.500;10.176;2023-08-21T10:00:06;2.30;;;1.07;;
7029;SDS011;3556;53.500;10.176;2023-08-21T10:02:51;8.37;;;1.60;;
7029;SDS011;3556;53.500;10.176;2023-08-21T10:05:18;3.67;;;1.43;;
7029;SDS011;3556;53.500;10.176;2023-08-21T10:07:46;2.77;;;1.10;;
7029;SDS011;3556;53.500;10.176;2023-08-21T10:10:13;2.70;;;1.23;;
7029;SDS011;3556;53.500;10.176;2023-08-21T10:12:40;1.83;;;1.10;;
7029;SDS011;3556;53.500;10.176;2023-08-21T10:15:06;2.07;;;1.07;;
7029;SDS011;3556;53.500;10.176;2023-08-21T10:17:34;3.00;;;1.83;;
7029;SDS011;3556;53.500;10.176;2023-08-21T10:20:04;5.50;;;1.50;;
7029;SDS011;3556;53.500;10.176;2023-08-21T10:22:38;2.90;;;1.40;;
7029;SDS011;3556;53.500;10.176;2023-08-21T10:25:16;2.27;;;1.00;;
7029;SDS011;3556;53.500;10.176;2023-08-21T10:27:49;3.97;;;1.30;;
7029;SDS011;3556;53.500;10.176;2023-08-21T10:30:21;3.10;;;1.07;;
7029;SDS011;3556;53.500;10.176;2023-08-21T10:32:48;5.93;;;1.20;;
7029;SDS011;3556;53.500;10.176;2023-08-21T10:35:22;2.87;;;1.20;;
7029;SDS011;3556;53.500;10.176;2023-08-21T10:43:51;1.83;;;0.80;;
7029;SDS011;3556;53.500;10.176;2023-08-21T10:46:16;5.13;;;1.23;;
7029;SDS011;3556;53.500;10.176;2023-08-21T10:48:42;4.10;;;1.13;;
7029;SDS011;3556;53.500;10.176;2023-08-21T10:51:08;5.43;;;1.00;;
7029;SDS011;3556;53.500;10.176;2023-08-21T10:53:34;2.40;;;1.00;;
7029;SDS011;3556;53.500;10.176;2023-08-21T10:56:03;4.07;;;1.40;;
7029;SDS011;3556;53.500;10.176;2023-08-21T10:58:42;3.70;;;1.10;;
7029;SDS011;3556;53.500;10.176;2023-08-21T11:01:12;2.27;;;1.50;;
7029;SDS011;3556;53.500;10.176;2023-08-21T11:03:39;2.30;;;1.10;;
7029;SDS011;3556;53.500;10.176;2023-08-21T11:06:08;1.87;;;1.10;;
7029;SDS011;3556;53.500;10.176;2023-08-21T11:08:35;2.90;;;1.10;;
7029;SDS011;3556;53.500;10.176;2023-08-21T11:11:02;4.23;;;0.97;;
7029;SDS011;3556;53.500;10.176;2023-08-21T11:13:29;2.63;;;0.80;;
7029;SDS011;3556;53.500;10.176;2023-08-21T11:16:05;1.93;;;1.00;;
7029;SDS011;3556;53.500;10.176;2023-08-21T11:18:31;4.50;;;1.17;;
7029;SDS011;3556;53.500;10.176;2023-08-21T11:21:07;4.17;;;1.10;;
7029;SDS011;3556;53.500;10.176;2023-08-21T11:23:40;3.83;;;1.20;;
7029;SDS011;3556;53.500;10.176;2023-08-21T11:26:09;2.53;;;1.07;;
7029;SDS011;3556;53.500;10.176;2023-08-21T11:28:35;2.70;;;1.20;;
7029;SDS011;3556;53.500;10.176;2023-08-21T11:31:01;7.53;;;1.30;;
7029;SDS011;3556;53.500;10.176;2023-08-21T11:33:27;1.83;;;1.57;;
7029;SDS011;3556;53.500;10.176;2023-08-21T11:35:54;3.40;;;1.20;;
7029;SDS011;3556;53.500;10.176;2023-08-21T11:38:22;2.40;;;1.27;;
7029;SDS011;3556;53.500;10.176;2023-08-21T11:41:00;4.27;;;1.10;;
7029;SDS011;3556;53.500;10.176;2023-08-21T11:43:37;2.30;;;1.30;;
7029;SDS011;3556;53.500;10.176;2023-08-21T11:46:07;2.23;;;1.50;;
7029;SDS011;3556;53.500;10.176;2023-08-21T11:48:36;4.93;;;1.37;;
7029;SDS011;3556;53.500;10.176;2023-08-21T11:51:03;2.27;;;1.20;;
7029;SDS011;3556;53.500;10.176;2023-08-21T11:53:33;3.00;;;1.10;;
7029;SDS011;3556;53.500;10.176;2023-08-21T11:56:09;1.37;;;1.27;;
7029;SDS011;3556;53.500;10.176;2023-08-21T11:58:41;2.20;;;1.50;;
7029;SDS011;3556;53.500;10.176;2023-08-21T12:01:10;4.00;;;1.17;;
7029;SDS011;3556;53.500;10.176;2023-08-21T12:03:41;8.33;;;1.23;;
7029;SDS011;3556;53.500;10.176;2023-08-21T12:06:07;2.07;;;1.00;;
7029;SDS011;3556;53.500;10.176;2023-08-21T12:08:34;5.17;;;1.33;;
7029;SDS011;3556;53.500;10.176;2023-08-21T12:10:59;7.03;;;1.40;;
7029;SDS011;3556;53.500;10.176;2023-08-21T12:13:26;1.70;;;0.97;;
7029;SDS011;3556;53.500;10.176;2023-08-21T12:15:51;5.10;;;1.40;;
7029;SDS011;3556;53.500;10.176;2023-08-21T12:18:17;1.70;;;1.00;;
7029;SDS011;3556;53.500;10.176;2023-08-21T12:20:42;2.00;;;1.30;;
7029;SDS011;3556;53.500;10.176;2023-08-21T12:23:08;1.97;;;1.13;;
7029;SDS011;3556;53.500;10.176;2023-08-21T12:25:33;6.13;;;1.10;;
7029;SDS011;3556;53.500;10.176;2023-08-21T12:27:59;1.20;;;1.00;;
7029;SDS011;3556;53.500;10.176;2023-08-21T12:30:25;2.23;;;1.10;;
7029;SDS011;3556;53.500;10.176;2023-08-21T12:32:50;5.70;;;1.50;;
7029;SDS011;3556;53.500;10.176;2023-08-21T12:35:16;1.30;;;1.10;;
7029;SDS011;3556;53.500;10.176;2023-08-21T12:37:42;2.50;;;1.27;;
7029;SDS011;3556;53.500;10.176;2023-08-21T12:40:08;1.97;;;0.83;;
7029;SDS011;3556;53.500;10.176;2023-08-21T12:42:34;3.47;;;1.00;;
7029;SDS011;3556;53.500;10.176;2023-08-21T12:45:00;2.70;;;1.33;;
7029;SDS011;3556;53.500;10.176;2023-08-21T12:47:25;1.90;;;1.07;;
7029;SDS011;3556;53.500;10.176;2023-08-21T12:49:51;1.63;;;0.90;;
7029;SDS011;3556;53.500;10.176;2023-08-21T12:52:16;1.40;;;1.00;;
7029;SDS011;3556;53.500;10.176;2023-08-21T12:54:42;1.40;;;1.10;;
7029;SDS011;3556;53.500;10.176;2023-08-21T12:57:08;5.13;;;1.30;;
7029;SDS011;3556;53.500;10.176;2023-08-21T12:59:36;1.40;;;1.20;;
7029;SDS011;3556;53.500;10.176;2023-08-21T13:02:01;2.60;;;1.30;;
7029;SDS011;3556;53.500;10.176;2023-08-21T13:04:28;1.93;;;0.97;;
7029;SDS011;3556;53.500;10.176;2023-08-21T13:06:54;1.60;;;1.10;;
7029;SDS011;3556;53.500;10.176;2023-08-21T13:09:19;2.10;;;1.30;;
7029;SDS011;3556;53.500;10.176;2023-08-21T13:11:45;3.90;;;1.30;;
7029;SDS011;3556;53.500;10.176;2023-08-21T13:14:11;1.60;;;1.30;;
7029;SDS011;3556;53.500;10.176;2023-08-21T13:16:36;1.30;;;0.90;;
7029;SDS011;3556;53.500;10.176;2023-08-21T13:19:02;1.50;;;1.40;;
7029;SDS011;3556;53.500;10.176;2023-08-21T13:21:27;1.67;;;1.17;;
7029;SDS011;3556;53.500;10.176;2023-08-21T13:23:53;2.60;;;1.30;;
7029;SDS011;3556;53.500;10.176;2023-08-21T13:26:19;2.03;;;1.30;;
7029;SDS011;3556;53.500;10.176;2023-08-21T13:28:45;5.00;;;1.30;;
7029;SDS011;3556;53.500;10.176;2023-08-21T13:31:10;3.43;;;1.00;;
7029;SDS011;3556;53.500;10.176;2023-08-21T13:33:49;1.97;;;1.30;;
7029;SDS011;3556;53.500;10.176;2023-08-21T13:36:16;3.10;;;1.17;;
7029;SDS011;3556;53.500;10.176;2023-08-21T13:38:43;2.13;;;1.40;;
7029;SDS011;3556;53.500;10.176;2023-08-21T13:41:09;1.77;;;1.40;;
7029;SDS011;3556;53.500;10.176;2023-08-21T13:43:35;2.60;;;1.30;;
7029;SDS011;3556;53.500;10.176;2023-08-21T13:46:01;1.43;;;1.10;;
7029;SDS011;3556;53.500;10.176;2023-08-21T13:48:29;2.20;;;1.07;;
7029;SDS011;3556;53.500;10.176;2023-08-21T13:50:55;1.20;;;0.93;;
7029;SDS011;3556;53.500;10.176;2023-08-21T13:53:21;2.70;;;1.30;;
7029;SDS011;3556;53.500;10.176;2023-08-21T13:55:46;5.87;;;1.10;;
7029;SDS011;3556;53.500;10.176;2023-08-21T13:58:12;1.90;;;1.10;;
7029;SDS011;3556;53.500;10.176;2023-08-21T14:00:37;1.67;;;1.00;;
7029;SDS011;3556;53.500;10.176;2023-08-21T14:03:03;1.43;;;1.20;;
7029;SDS011;3556;53.500;10.176;2023-08-21T14:05:29;1.70;;;1.20;;
7029;SDS011;3556;53.500;10.176;2023-08-21T14:07:56;2.70;;;1.00;;
7029;SDS011;3556;53.500;10.176;2023-08-21T14:10:22;5.60;;;1.67;;
7029;SDS011;3556;53.500;10.176;2023-08-21T14:12:48;1.83;;;1.03;;
7029;SDS011;3556;53.500;10.176;2023-08-21T14:15:13;3.93;;;1.10;;
7029;SDS011;3556;53.500;10.176;2023-08-21T14:17:39;7.23;;;1.40;;
7029;SDS011;3556;53.500;10.176;2023-08-21T14:20:05;3.57;;;1.20;;
7029;SDS011;3556;53.500;10.176;2023-08-21T14:22:32;1.43;;;0.90;;
7029;SDS011;3556;53.500;10.176;2023-08-21T14:24:57;4.63;;;1.30;;
7029;SDS011;3556;53.500;10.176;2023-08-21T14:27:23;1.60;;;1.30;;
7029;SDS011;3556;53.500;10.176;2023-08-21T14:29:49;1.53;;;0.90;;
7029;SDS011;3556;53.500;10.176;2023-08-21T14:32:14;1.97;;;1.10;;
7029;SDS011;3556;53.500;10.176;2023-08-21T14:34:40;1.40;;;1.20;;
7029;SDS011;3556;53.500;10.176;2023-08-21T14:37:06;2.03;;;1.10;;
7029;SDS011;3556;53.500;10.176;2023-08-21T14:39:33;1.83;;;0.97;;
7029;SDS011;3556;53.500;10.176;2023-08-21T14:41:59;1.63;;;1.13;;
7029;SDS011;3556;53.500;10.176;2023-08-21T14:44:24;7.00;;;1.00;;
7029;SDS011;3556;53.500;10.176;2023-08-21T14:46:52;1.70;;;1.23;;
7029;SDS011;3556;53.500;10.176;2023-08-21T14:49:19;5.63;;;1.20;;
7029;SDS011;3556;53.500;10.176;2023-08-21T14:51:45;1.33;;;1.00;;
7029;SDS011;3556;53.500;10.176;2023-08-21T14:54:10;1.53;;;1.20;;
7029;SDS011;3556;53.500;10.176;2023-08-21T14:56:36;1.63;;;1.33;;
7029;SDS011;3556;53.500;10.176;2023-08-21T14:59:02;2.00;;;1.13;;
7029;SDS011;3556;53.500;10.176;2023-08-21T15:01:28;2.33;;;1.40;;
7029;SDS011;3556;53.500;10.176;2023-08-21T15:03:54;4.97;;;1.10;;
7029;SDS011;3556;53.500;10.176;2023-08-21T15:06:19;1.83;;;1.03;;
7029;SDS011;3556;53.500;10.176;2023-08-21T15:08:45;6.93;;;1.40;;